Time;durP1;ratioP1;P1;durP2;ratioP2;P2;SDS_P1;SDS_P2;PMS_P1;PMS_P2;Temp;Humidity;BMP_temperature;BMP_pressure;BME280_temperature;BME280_humidity;BME280_pressure;Samples;Min_cycle;Max_cycle;Signal;HPM_P1;HPM_P2
2020/12/29 00:13:50;;;;;;;149.35;142.93;;;-0.70;99.90;;;;;;5899689;24;20288;-85
2020/12/29 01:39:15;;;;;;;;;;;;;;;;;;;;;
2020/12/29 01:42:29;;;;;;;;;;;;;;;;;;;;;
2020/12/29 01:45:47;;;;;;;166.68;156.60;;;-0.80;99.90;;;;;;5797935;24;20179;-86
2020/12/29 01:55:44;;;;;;;171.05;161.95;;;-0.80;99.90;;;;;;5956559;24;20198;-86
2020/12/29 01:58:56;;;;;;;171.43;162.95;;;-1.00;99.90;;;;;;5926706;24;20168;-85
2020/12/29 02:02:13;;;;;;;;;;;;;;;;;;;;;
2020/12/29 04:16:06;;;;;;;227.60;215.60;;;0.70;99.90;;;;;;5938829;23;20250;-88
2020/12/29 04:25:10;;;;;;;212.63;201.73;;;0.50;99.90;;;;;;5956638;23;20418;-81
2020/12/29 04:55:26;;;;;;;;;;;;;;;;;;;;;
2020/12/29 05:01:48;;;;;;;;;;;;;;;;;;;;;
2020/12/29 05:05:00;;;;;;;164.57;155.05;;;-1.40;99.90;;;;;;5965727;23;20176;-87
2020/12/29 05:20:48;;;;;;;;;;;;;;;;;;;;;
2020/12/29 05:53:39;;;;;;;137.43;129.38;;;-1.90;99.90;;;;;;6005556;23;20177;-86
2020/12/29 05:56:15;;;;;;;139.18;130.65;;;-1.90;99.90;;;;;;6017672;23;20805;-85
2020/12/29 05:58:44;;;;;;;138.05;128.73;;;-2.00;99.90;;;;;;6071123;23;20590;-85
2020/12/29 06:05:32;;;;;;;;;;;;;;;;;;;;;
2020/12/29 06:12:10;;;;;;;152.25;142.27;;;-1.70;99.90;;;;;;6164520;23;20169;-85
2020/12/29 06:29:53;;;;;;;;;;;;;;;;;;;;;
2020/12/29 06:54:46;;;;;;;187.63;177.02;;;-0.70;99.90;;;;;;6048530;23;20554;-88
2020/12/29 06:57:18;;;;;;;189.23;179.15;;;-0.60;99.90;;;;;;6103230;23;20527;-84
2020/12/29 06:59:53;;;;;;;201.65;190.63;;;-0.50;99.90;;;;;;6092443;23;20172;-85
2020/12/29 07:02:43;;;;;;;;;;;;;;;;;;;;;
2020/12/29 07:08:38;;;;;;;207.05;195.80;;;0.00;99.90;;;;;;6243607;22;20217;-85
2020/12/29 07:11:16;;;;;;;222.95;208.85;;;0.00;99.90;;;;;;6255456;22;20240;-86
2020/12/29 07:13:50;;;;;;;206.10;195.10;;;-0.10;99.90;;;;;;6247003;22;20160;-85
2020/12/29 07:16:22;;;;;;;194.30;182.30;;;-0.20;99.90;;;;;;6285652;22;20426;-86
2020/12/29 07:18:48;;;;;;;196.68;184.43;;;-0.20;99.90;;;;;;6276513;22;20155;-86
2020/12/29 07:21:29;;;;;;;193.18;181.60;;;-0.40;99.90;;;;;;6289436;22;20168;-85
2020/12/29 07:24:08;;;;;;;220.07;204.27;;;-0.50;99.90;;;;;;6286552;22;20225;-83
2020/12/29 07:26:39;;;;;;;217.05;201.75;;;-0.40;99.90;;;;;;6285574;22;20432;-84
2020/12/29 07:29:20;;;;;;;;;;;;;;;;;;;;;
2020/12/29 07:31:47;;;;;;;199.75;188.55;;;-0.20;99.90;;;;;;6222552;22;20202;-83
2020/12/29 07:34:14;;;;;;;208.88;197.68;;;0.00;99.90;;;;;;6285754;22;20572;-85
2020/12/29 07:36:45;;;;;;;204.88;192.20;;;0.10;99.90;;;;;;6276415;22;20190;-84
2020/12/29 07:39:13;;;;;;;205.07;193.65;;;0.20;99.90;;;;;;6287731;22;20457;-85
2020/12/29 07:41:40;;;;;;;213.23;202.60;;;0.10;99.90;;;;;;6277616;22;20160;-85
2020/12/29 07:44:06;;;;;;;213.65;202.52;;;0.10;99.90;;;;;;6276783;22;20399;-85
2020/12/29 07:46:33;;;;;;;223.00;210.88;;;0.20;99.90;;;;;;6288325;22;20152;-85
2020/12/29 07:49:00;;;;;;;230.80;217.67;;;0.30;99.90;;;;;;6287715;22;20171;-84
2020/12/29 07:51:27;;;;;;;219.88;206.60;;;0.40;99.90;;;;;;6277962;22;20410;-85
2020/12/29 07:54:07;;;;;;;228.30;215.43;;;0.50;99.90;;;;;;6277453;22;20156;-85
2020/12/29 07:57:01;;;;;;;241.73;227.73;;;0.50;99.90;;;;;;6283477;22;20442;-86
2020/12/29 07:59:28;;;;;;;266.58;249.00;;;0.70;99.90;;;;;;6270625;22;20406;-86
2020/12/29 08:01:55;;;;;;;249.30;234.57;;;0.80;99.90;;;;;;6286697;22;20156;-84
2020/12/29 08:04:33;;;;;;;240.02;226.18;;;0.80;99.90;;;;;;6276355;22;20214;-84
2020/12/29 08:07:07;;;;;;;250.60;236.23;;;0.90;99.90;;;;;;6285997;22;20179;-85
2020/12/29 08:09:44;;;;;;;249.17;234.50;;;1.00;99.90;;;;;;6286368;22;20853;-85
2020/12/29 08:12:15;;;;;;;247.60;232.70;;;1.00;99.90;;;;;;6286619;22;20398;-85
2020/12/29 08:14:43;;;;;;;231.87;218.40;;;1.00;99.90;;;;;;6274273;22;20929;-85
2020/12/29 08:17:09;;;;;;;232.83;220.23;;;1.10;99.90;;;;;;6276367;22;20430;-85
2020/12/29 08:19:36;;;;;;;226.83;215.67;;;1.10;99.90;;;;;;6286129;22;20445;-85
2020/12/29 08:22:06;;;;;;;221.00;209.77;;;1.10;99.90;;;;;;6286038;22;20442;-85
2020/12/29 08:24:36;;;;;;;229.37;216.63;;;1.10;99.90;;;;;;6276111;22;20404;-87
2020/12/29 08:27:03;;;;;;;219.33;207.90;;;1.20;99.90;;;;;;6277663;22;20402;-86
2020/12/29 08:29:34;;;;;;;212.83;202.17;;;1.20;99.90;;;;;;6276432;22;20434;-84
2020/12/29 08:32:06;;;;;;;206.53;196.63;;;1.20;99.90;;;;;;6287741;22;20398;-86
2020/12/29 08:34:34;;;;;;;199.10;189.40;;;1.30;99.90;;;;;;6287639;22;20844;-85
2020/12/29 08:37:02;;;;;;;201.80;189.57;;;1.20;99.90;;;;;;6288040;22;20406;-86
2020/12/29 08:39:46;;;;;;;203.10;193.60;;;1.40;99.90;;;;;;6277698;22;20394;-86
2020/12/29 08:42:13;;;;;;;202.20;192.47;;;1.30;99.90;;;;;;6277718;22;20395;-84
2020/12/29 08:44:44;;;;;;;199.03;189.03;;;1.40;99.90;;;;;;6286507;22;20411;-85
2020/12/29 08:47:16;;;;;;;194.37;184.33;;;1.30;99.90;;;;;;6287982;22;20417;-85
2020/12/29 08:49:47;;;;;;;191.63;181.80;;;1.50;99.90;;;;;;6277640;22;20430;-85
2020/12/29 08:52:13;;;;;;;186.73;176.43;;;1.40;99.90;;;;;;6273877;22;20160;-85
2020/12/29 08:54:40;;;;;;;188.83;179.00;;;1.50;99.90;;;;;;6286160;22;20406;-86
2020/12/29 08:57:10;;;;;;;189.40;179.40;;;1.40;99.90;;;;;;6275845;22;20445;-86
2020/12/29 08:59:39;;;;;;;186.13;176.40;;;1.50;99.90;;;;;;6274278;22;20753;-85
2020/12/29 09:02:08;;;;;;;171.60;163.00;;;1.50;99.90;;;;;;6275751;22;20437;-80
2020/12/29 09:04:36;;;;;;;163.43;154.93;;;1.60;99.90;;;;;;6285500;22;20418;-85
2020/12/29 09:07:07;;;;;;;159.43;151.03;;;1.70;99.90;;;;;;6275401;22;20426;-85
2020/12/29 09:09:36;;;;;;;155.07;147.27;;;1.80;99.90;;;;;;6285844;22;20489;-86
2020/12/29 09:12:16;;;;;;;150.48;143.07;;;1.90;99.90;;;;;;6276324;22;21086;-85
2020/12/29 09:14:56;;;;;;;151.43;142.53;;;2.00;99.90;;;;;;6285742;22;20195;-86
2020/12/29 09:17:28;;;;;;;140.50;133.13;;;2.10;99.90;;;;;;6277161;22;20399;-86
2020/12/29 09:20:15;;;;;;;125.70;119.00;;;2.20;99.90;;;;;;6289022;22;20499;-85
2020/12/29 09:22:53;;;;;;;106.97;100.97;;;2.40;99.90;;;;;;6287364;22;20418;-87
2020/12/29 09:25:28;;;;;;;95.93;90.37;;;2.40;99.90;;;;;;6286950;22;20429;-86
2020/12/29 09:28:12;;;;;;;88.53;83.60;;;2.50;99.90;;;;;;6287163;22;20491;-87
2020/12/29 09:30:40;;;;;;;75.50;70.93;;;2.60;99.90;;;;;;6286013;22;20841;-87
2020/12/29 09:33:07;;;;;;;70.53;65.23;;;2.60;99.90;;;;;;6287166;22;20437;-87
2020/12/29 09:35:34;;;;;;;50.57;46.93;;;2.70;99.90;;;;;;6287128;22;20462;-86
2020/12/29 09:38:03;;;;;;;50.20;46.53;;;2.70;99.90;;;;;;6276911;22;20780;-85
2020/12/29 09:40:30;;;;;;;40.80;37.30;;;2.80;99.90;;;;;;6286997;22;20460;-85
2020/12/29 09:42:57;;;;;;;60.00;37.47;;;2.90;99.90;;;;;;6277045;22;20456;-87
2020/12/29 09:45:25;;;;;;;58.47;47.70;;;2.90;99.90;;;;;;6275564;22;20408;-86
2020/12/29 09:47:52;;;;;;;53.90;44.33;;;3.10;99.90;;;;;;6277379;22;20786;-87
2020/12/29 09:50:19;;;;;;;37.43;33.83;;;3.10;99.90;;;;;;6286950;22;20924;-87
2020/12/29 09:52:46;;;;;;;41.80;37.33;;;3.10;99.90;;;;;;6286908;22;20413;-87
2020/12/29 09:55:12;;;;;;;35.60;32.40;;;3.10;99.90;;;;;;6276904;22;20458;-85
2020/12/29 09:57:39;;;;;;;32.90;29.70;;;3.10;99.90;;;;;;6287147;22;20485;-86
2020/12/29 10:00:06;;;;;;;34.97;29.43;;;3.20;99.90;;;;;;6274855;22;20395;-85
2020/12/29 10:02:39;;;;;;;32.03;28.60;;;3.20;99.90;;;;;;6276913;22;20395;-84
2020/12/29 10:05:11;;;;;;;36.93;28.73;;;3.20;99.90;;;;;;6286790;22;20505;-84
2020/12/29 10:07:41;;;;;;;34.10;29.30;;;3.40;99.90;;;;;;6276469;22;20431;-86
2020/12/29 10:10:07;;;;;;;34.80;29.00;;;3.50;99.90;;;;;;6287096;22;20405;-86
2020/12/29 10:12:33;;;;;;;32.03;28.83;;;3.50;99.90;;;;;;6286540;22;20406;-86
2020/12/29 10:15:00;;;;;;;39.77;30.00;;;3.60;99.90;;;;;;6275345;22;20473;-86
2020/12/29 10:17:27;;;;;;;34.30;30.70;;;3.70;99.90;;;;;;6284485;22;20410;-85
2020/12/29 10:19:56;;;;;;;35.00;28.60;;;3.80;99.90;;;;;;6284490;22;20464;-85
2020/12/29 10:22:26;;;;;;;33.53;25.30;;;3.90;99.90;;;;;;6274756;22;20402;-87
2020/12/29 10:24:53;;;;;;;26.90;18.43;;;4.10;99.90;;;;;;6283805;22;20426;-86
2020/12/29 10:27:23;;;;;;;32.67;21.00;;;4.20;99.90;;;;;;6284303;22;20454;-86
2020/12/29 10:29:53;;;;;;;31.70;21.50;;;4.40;99.90;;;;;;6283330;22;20409;-86
2020/12/29 10:32:20;;;;;;;34.03;19.27;;;4.40;99.90;;;;;;6285002;22;20437;-86
2020/12/29 10:34:47;;;;;;;28.93;20.87;;;4.40;99.90;;;;;;6274722;22;20410;-84
2020/12/29 10:37:16;;;;;;;30.93;22.17;;;4.40;99.90;;;;;;6284561;22;20493;-86
2020/12/29 10:39:43;;;;;;;26.63;22.47;;;4.50;99.90;;;;;;6274765;22;20413;-85
2020/12/29 10:42:10;;;;;;;26.33;21.17;;;4.40;99.90;;;;;;6274910;22;20402;-86
2020/12/29 10:44:43;;;;;;;34.27;22.00;;;4.40;99.90;;;;;;6283967;22;20410;-87
2020/12/29 10:47:10;;;;;;;36.70;22.37;;;4.40;99.90;;;;;;6285458;22;20402;-87
2020/12/29 10:49:36;;;;;;;32.07;21.27;;;4.40;99.90;;;;;;6285115;22;20442;-87
2020/12/29 10:52:04;;;;;;;41.17;24.30;;;4.50;99.90;;;;;;6284861;22;20444;-87
2020/12/29 10:54:30;;;;;;;41.27;24.13;;;4.50;99.90;;;;;;6284693;22;20437;-87
2020/12/29 10:57:00;;;;;;;35.00;23.30;;;4.50;99.90;;;;;;6284740;22;20442;-87
2020/12/29 10:59:27;;;;;;;40.57;24.73;;;4.60;99.90;;;;;;6273566;22;20446;-87
2020/12/29 11:01:55;;;;;;;37.80;24.80;;;4.60;99.90;;;;;;6275160;22;20426;-86
2020/12/29 11:04:22;;;;;;;40.67;23.63;;;4.60;99.90;;;;;;6285027;22;20451;-87
2020/12/29 11:06:49;;;;;;;34.00;22.27;;;4.70;99.90;;;;;;6284458;22;20437;-87
2020/12/29 11:09:15;;;;;;;34.33;23.20;;;4.60;99.90;;;;;;6281054;22;20794;-87
2020/12/29 11:11:42;;;;;;;30.50;21.03;;;4.70;99.90;;;;;;6274201;22;20417;-88
2020/12/29 11:14:14;;;;;;;33.37;22.83;;;4.50;99.90;;;;;;6275060;22;20434;-87
2020/12/29 11:16:41;;;;;;;33.90;20.90;;;4.70;99.90;;;;;;6286778;22;20442;-87
2020/12/29 11:19:08;;;;;;;34.73;21.70;;;4.70;99.90;;;;;;6276965;22;20958;-86
2020/12/29 11:21:34;;;;;;;27.93;20.60;;;4.70;99.90;;;;;;6287168;22;20421;-87
2020/12/29 11:24:04;;;;;;;30.10;21.40;;;4.80;99.90;;;;;;6287004;22;20447;-87
2020/12/29 11:26:30;;;;;;;35.80;21.30;;;4.90;99.90;;;;;;6276966;22;20473;-87
2020/12/29 11:29:00;;;;;;;31.40;17.43;;;4.90;99.90;;;;;;6275318;22;20403;-85
2020/12/29 11:31:28;;;;;;;32.27;21.00;;;4.90;99.90;;;;;;6287010;22;20410;-82
2020/12/29 11:36:33;;;;;;;22.67;16.70;;;4.80;99.90;;;;;;6301625;22;20476;-86
2020/12/29 11:38:59;;;;;;;27.17;18.67;;;4.80;99.90;;;;;;6318443;22;20420;-85
2020/12/29 11:41:26;;;;;;;27.20;17.63;;;4.80;99.90;;;;;;6321268;22;20484;-86
2020/12/29 11:43:56;;;;;;;25.00;18.37;;;4.70;99.10;;;;;;6306043;22;20998;-86
2020/12/29 11:46:23;;;;;;;30.23;16.40;;;4.80;97.70;;;;;;6316987;22;20413;-86
2020/12/29 11:48:53;;;;;;;23.00;14.93;;;4.70;97.90;;;;;;6318861;22;20429;-85
2020/12/29 11:51:20;;;;;;;24.30;16.20;;;4.50;98.40;;;;;;6319484;22;20413;-85
2020/12/29 11:53:47;;;;;;;26.57;15.90;;;4.40;98.30;;;;;;6318544;22;20455;-86
2020/12/29 11:56:13;;;;;;;32.80;15.87;;;4.40;97.20;;;;;;6308579;22;20993;-85
2020/12/29 11:58:40;;;;;;;25.50;17.60;;;4.40;97.50;;;;;;6318183;22;20402;-89
2020/12/29 12:01:06;;;;;;;24.30;15.90;;;4.30;99.00;;;;;;6323352;22;20463;-85
2020/12/29 12:03:41;;;;;;;28.70;16.90;;;4.30;99.60;;;;;;6319124;22;20437;-84
2020/12/29 12:06:09;;;;;;;27.73;16.50;;;4.30;99.10;;;;;;6318890;22;20877;-85
2020/12/29 12:08:40;;;;;;;24.60;15.30;;;4.40;99.40;;;;;;6318918;22;20432;-85
2020/12/29 12:11:34;;;;;;;25.33;15.23;;;4.40;98.30;;;;;;6319327;22;20408;-86
2020/12/29 12:14:04;;;;;;;29.07;15.13;;;4.50;97.90;;;;;;6317986;22;20413;-85
2020/12/29 12:16:51;;;;;;;28.57;16.07;;;4.70;97.70;;;;;;6319042;22;20463;-86
2020/12/29 12:19:47;;;;;;;;;;;;;;;;;;;;;
2020/12/29 12:25:14;;;;;;;22.57;13.57;;;5.00;96.10;;;;;;6307087;22;20462;-87
2020/12/29 12:28:22;;;;;;;;;;;;;;;;;;;;;
2020/12/29 12:31:04;;;;;;;22.20;14.37;;;5.20;84.80;;;;;;6318006;22;20401;-87
2020/12/29 12:33:32;;;;;;;23.23;12.10;;;5.30;83.50;;;;;;6318646;22;20405;-86
2020/12/29 12:36:03;;;;;;;20.13;11.27;;;5.30;78.60;;;;;;6318470;22;20518;-86
2020/12/29 12:38:37;;;;;;;20.17;11.37;;;5.40;78.20;;;;;;6318952;22;20416;-86
2020/12/29 13:36:24;;;;;;;;;;;;;;;;;;;;;
2020/12/29 13:39:14;;;;;;;16.03;10.03;;;5.90;44.50;;;;;;6116159;23;20439;-90
2020/12/29 13:41:44;;;;;;;11.73;7.33;;;5.70;45.30;;;;;;6308976;22;20484;-89
2020/12/29 13:44:36;;;;;;;14.33;9.33;;;5.50;44.40;;;;;;6307241;22;20402;-90
2020/12/29 13:47:25;;;;;;;15.10;7.40;;;5.40;45.90;;;;;;6293280;22;20778;-89
2020/12/29 13:50:09;;;;;;;;;;;;;;;;;;;;;
2020/12/29 13:52:39;;;;;;;12.40;8.60;;;5.10;48.30;;;;;;6317858;22;20394;-87
2020/12/29 13:55:47;;;;;;;;;;;;;;;;;;;;;
2020/12/29 13:58:22;;;;;;;21.40;10.07;;;4.90;50.60;;;;;;6240004;22;20412;-87
2020/12/29 14:00:55;;;;;;;16.17;10.23;;;4.80;50.00;;;;;;6306237;22;20410;-88
2020/12/29 14:06:41;;;;;;;;;;;;;;;;;;;;;
2020/12/29 14:12:39;;;;;;;16.70;9.03;;;4.60;53.00;;;;;;6304357;22;20431;-88
2020/12/29 14:15:29;;;;;;;16.90;8.53;;;4.50;54.30;;;;;;6316415;22;20413;-89
2020/12/29 14:21:36;;;;;;;14.20;9.17;;;4.40;56.70;;;;;;6043166;23;20979;-89
2020/12/29 14:24:45;;;;;;;16.93;10.30;;;4.40;57.10;;;;;;6249048;22;20906;-88
2020/12/29 14:30:34;;;;;;;15.10;9.37;;;4.30;58.00;;;;;;6208988;23;20412;-89
2020/12/29 14:33:25;;;;;;;17.50;9.67;;;4.30;59.10;;;;;;6222775;23;20435;-88
2020/12/29 14:36:23;;;;;;;21.80;9.73;;;4.30;61.00;;;;;;6212919;23;20585;-88
2020/12/29 14:39:01;;;;;;;20.90;9.30;;;4.20;63.00;;;;;;6223375;23;20728;-88
2020/12/29 14:42:16;;;;;;;23.30;11.70;;;4.20;64.40;;;;;;6223330;23;20440;-89
2020/12/29 14:44:58;;;;;;;18.30;10.50;;;4.00;67.20;;;;;;6130844;23;20453;-87
2020/12/29 15:24:00;;;;;;;18.90;11.07;;;3.60;82.80;;;;;;5933232;24;20450;-88
2020/12/29 15:26:32;;;;;;;18.07;10.97;;;3.80;81.60;;;;;;6137601;23;20463;-87
2020/12/29 15:29:10;;;;;;;22.53;10.63;;;3.80;78.80;;;;;;6221502;23;20415;-87
2020/12/29 15:31:44;;;;;;;15.40;10.77;;;3.90;80.00;;;;;;6227240;23;20461;-87
2020/12/29 15:34:34;;;;;;;21.40;10.70;;;3.90;78.20;;;;;;6222198;23;20430;-86
2020/12/29 15:37:09;;;;;;;22.87;10.37;;;4.00;77.20;;;;;;6091251;23;20503;-86
2020/12/29 15:46:17;;;;;;;;;;;;;;;;;;;;;
2020/12/29 15:51:49;;;;;;;15.43;9.40;;;3.90;76.60;;;;;;6205414;23;20412;-87
2020/12/29 15:57:30;;;;;;;17.93;10.80;;;3.90;78.30;;;;;;6192299;23;20514;-86
2020/12/29 16:03:14;;;;;;;18.23;9.90;;;3.80;76.20;;;;;;6192922;23;20443;-88
2020/12/29 16:06:19;;;;;;;13.30;9.10;;;3.90;74.60;;;;;;6221928;23;20474;-88
2020/12/29 16:09:33;;;;;;;16.43;9.30;;;3.80;74.60;;;;;;6221461;23;20501;-87
2020/12/29 16:15:26;;;;;;;24.20;11.70;;;3.70;78.10;;;;;;6174845;23;20412;-85
2020/12/29 16:23:56;;;;;;;;;;;;;;;;;;;;;
2020/12/29 16:29:42;;;;;;;20.67;13.33;;;2.90;94.80;;;;;;6209111;23;20474;-87
2020/12/29 16:35:09;;;;;;;26.93;19.17;;;2.80;99.90;;;;;;6201505;22;21373;-87
2020/12/29 16:37:40;;;;;;;27.03;18.70;;;2.80;99.90;;;;;;6251534;23;20836;-86
2020/12/29 16:40:27;;;;;;;26.37;17.43;;;2.50;99.90;;;;;;6251738;23;20919;-88
2020/12/29 16:43:18;;;;;;;;;;;;;;;;;;;;;
2020/12/29 16:48:31;;;;;;;42.60;31.40;;;2.10;99.90;;;;;;6240113;23;20430;-86
2020/12/29 16:51:07;;;;;;;30.90;25.37;;;2.10;99.90;;;;;;6252117;23;20751;-87
2020/12/29 16:53:46;;;;;;;27.70;24.83;;;2.10;99.90;;;;;;6251734;23;20440;-87
2020/12/29 16:56:20;;;;;;;25.17;22.73;;;2.10;99.90;;;;;;6253336;23;20439;-87
2020/12/29 16:59:35;;;;;;;30.47;22.50;;;2.20;99.90;;;;;;6303318;22;20465;-86
2020/12/29 17:02:09;;;;;;;22.73;20.13;;;2.40;99.90;;;;;;6163155;23;20556;-88
2020/12/29 17:05:02;;;;;;;;;;;;;;;;;;;;;
2020/12/29 17:07:28;;;;;;;24.90;17.10;;;2.60;99.90;;;;;;6315910;22;20677;-79
2020/12/29 17:10:53;;;;;;;;;;;;;;;;;;;;;
2020/12/29 17:16:35;;;;;;;20.80;14.07;;;2.90;99.90;;;;;;6268209;22;20663;-88
2020/12/29 17:19:21;;;;;;;22.67;15.50;;;3.00;99.90;;;;;;6319066;22;20433;-90
2020/12/29 17:22:18;;;;;;;20.87;13.03;;;2.90;99.90;;;;;;6319379;22;20420;-89
2020/12/29 17:28:17;;;;;;;16.80;12.70;;;3.20;99.90;;;;;;6301520;22;20410;-88
2020/12/29 17:30:48;;;;;;;18.83;13.57;;;3.10;99.90;;;;;;6316520;22;20490;-87
2020/12/29 17:33:37;;;;;;;20.67;11.53;;;3.00;99.90;;;;;;6318381;22;20500;-89
2020/12/29 17:39:30;;;;;;;17.03;12.57;;;2.90;99.90;;;;;;6305903;22;21366;-88
2020/12/29 17:45:31;;;;;;;20.17;13.70;;;2.70;99.90;;;;;;6141873;23;20410;-86
2020/12/29 17:48:07;;;;;;;18.47;12.50;;;2.60;99.90;;;;;;6213867;22;20847;-87
2020/12/29 17:51:25;;;;;;;16.77;12.00;;;2.50;99.90;;;;;;6308291;22;20714;-87
2020/12/29 17:54:24;;;;;;;17.30;13.13;;;2.40;99.90;;;;;;6225574;22;20421;-90
2020/12/29 18:40:38;;;;;;;;;;;;;;;;;;;;;
2020/12/29 18:53:17;;;;;;;17.30;12.70;;;2.10;99.90;;;;;;5922847;24;20420;-89
2020/12/29 18:56:01;;;;;;;18.10;13.80;;;1.90;99.90;;;;;;6015706;23;20417;-88
2020/12/29 18:59:09;;;;;;;17.70;16.10;;;1.80;99.90;;;;;;6065745;23;20421;-87
2020/12/29 19:05:38;;;;;;;16.53;12.33;;;2.20;99.90;;;;;;6040061;23;20453;-88
2020/12/29 19:08:39;;;;;;;21.10;13.10;;;2.20;99.90;;;;;;6160856;23;20414;-87
2020/12/29 19:11:38;;;;;;;16.00;12.30;;;2.00;99.90;;;;;;6284843;22;20757;-89
2020/12/29 19:14:08;;;;;;;13.40;10.27;;;2.30;99.90;;;;;;6283199;22;20433;-87
2020/12/29 19:16:49;;;;;;;13.93;11.40;;;2.40;99.90;;;;;;6286422;22;20441;-88
2020/12/29 19:19:21;;;;;;;14.87;11.23;;;2.50;99.90;;;;;;6284624;22;20409;-88
2020/12/29 19:22:02;;;;;;;;;;;;;;;;;;;;;
2020/12/29 19:24:30;;;;;;;18.23;11.70;;;2.10;99.90;;;;;;6284687;22;20386;-90
2020/12/29 19:27:14;;;;;;;15.13;12.70;;;2.00;99.90;;;;;;6274081;22;20410;-84
2020/12/29 19:29:49;;;;;;;19.70;14.00;;;1.90;99.90;;;;;;6306942;22;20473;-85
2020/12/29 19:32:28;;;;;;;17.03;14.27;;;1.80;99.90;;;;;;6316486;22;20428;-84
2020/12/29 19:35:53;;;;;;;;;;;;;;;;;;;;;
2020/12/29 19:38:22;;;;;;;19.23;12.77;;;1.50;99.90;;;;;;6305619;22;20413;-85
2020/12/29 19:40:49;;;;;;;13.97;10.37;;;1.80;99.90;;;;;;6319422;22;20440;-85
2020/12/29 19:43:17;;;;;;;17.70;12.47;;;2.00;99.90;;;;;;6308798;22;20404;-86
2020/12/29 19:49:36;;;;;;;15.73;12.00;;;2.00;99.90;;;;;;6142575;23;20898;-86
2020/12/29 19:52:09;;;;;;;15.50;11.63;;;1.80;99.90;;;;;;6153401;23;20421;-86
2020/12/29 19:54:44;;;;;;;18.53;14.30;;;2.00;99.90;;;;;;6163747;23;20416;-87
2020/12/29 20:12:17;;;;;;;;;;;;;;;;;;;;;
2020/12/29 20:31:59;;;;;;;21.50;12.27;;;1.50;99.90;;;;;;6047190;23;20421;-87
2020/12/29 20:38:26;;;;;;;14.07;11.87;;;1.70;99.90;;;;;;6067002;23;20809;-86
2020/12/29 20:44:25;;;;;;;15.57;11.23;;;1.90;99.90;;;;;;6060650;23;20404;-88
2020/12/29 21:27:23;;;;;;;21.87;17.70;;;1.00;99.90;;;;;;5977689;23;20415;-87
2020/12/29 23:02:14;;;;;;;19.57;17.63;;;2.00;99.90;;;;;;6039873;23;20785;-86
2020/12/29 23:09:24;;;;;;;;;;;;;;;;;;;;;
2020/12/29 23:22:24;;;;;;;18.23;16.30;;;2.10;99.90;;;;;;5989191;23;20432;-87
2020/12/29 23:29:26;;;;;;;;;;;;;;;;;;;;;
2020/12/29 23:43:43;;;;;;;17.50;14.30;;;2.40;99.90;;;;;;6248806;22;20505;-89
2020/12/29 23:50:18;;;;;;;20.70;16.07;;;2.40;99.90;;;;;;5960286;23;20416;-90
2020/12/29 23:53:13;;;;;;;19.40;15.07;;;2.40;99.90;;;;;;6162604;23;20417;-89
2020/12/29 23:56:03;;;;;;;17.93;15.47;;;2.40;99.90;;;;;;6155469;23;20445;-90
2020/12/29 23:59:17;;;;;;;17.20;14.57;;;2.20;99.90;;;;;;6260353;23;20449;-89
